createdAt,value
2019-05-02T00:01:59.502Z,50.93
2019-05-02T00:04:28.059Z,50.97
2019-05-02T00:07:05.545Z,50.90
2019-05-02T00:09:35.051Z,51.05
2019-05-02T00:12:05.709Z,51.27
2019-05-02T00:14:34.533Z,51.18
2019-05-02T00:17:03.089Z,50.95
2019-05-02T00:19:31.241Z,51.00
2019-05-02T00:21:59.467Z,51.17
2019-05-02T00:24:27.631Z,51.06
2019-05-02T00:27:00.795Z,51.02
2019-05-02T00:29:25.973Z,51.19
2019-05-02T00:31:54.211Z,51.15
2019-05-02T00:34:22.305Z,51.23
2019-05-02T00:36:50.523Z,52.70
2019-05-02T00:39:18.821Z,52.01
2019-05-02T00:41:47.020Z,51.23
2019-05-02T00:44:15.117Z,51.53
2019-05-02T00:46:43.248Z,50.99
2019-05-02T00:49:11.519Z,50.96
2019-05-02T00:51:39.655Z,50.96
2019-05-02T00:54:07.921Z,50.49
2019-05-02T00:56:40.207Z,50.24
2019-05-02T00:59:07.448Z,50.25
2019-05-02T01:01:48.395Z,50.33
2019-05-02T01:04:27.510Z,50.08
2019-05-02T01:06:53.393Z,50.62
2019-05-02T01:09:21.547Z,50.01
2019-05-02T01:11:49.721Z,49.92
2019-05-02T01:14:17.999Z,50.99
2019-05-02T01:16:49.441Z,53.74
2019-05-02T01:19:36.596Z,50.30
2019-05-02T01:22:04.910Z,50.59
2019-05-02T01:24:34.191Z,58.35
2019-05-02T01:27:09.101Z,51.15
2019-05-02T01:29:56.308Z,50.32
2019-05-02T01:32:43.443Z,62.29
2019-05-02T01:35:48.732Z,50.46
2019-05-02T01:38:38.425Z,50.35
2019-05-02T01:41:06.616Z,50.19
2019-05-02T01:43:34.896Z,50.18
2019-05-02T01:46:03.089Z,50.70
2019-05-02T01:48:31.221Z,50.66
2019-05-02T01:50:59.395Z,51.07
2019-05-02T01:53:29.334Z,50.27
2019-05-02T01:55:59.317Z,50.42
2019-05-02T01:58:27.481Z,52.16
2019-05-02T02:00:56.030Z,50.37
2019-05-02T02:03:24.225Z,50.08
2019-05-02T02:05:52.373Z,70.02
2019-05-02T02:08:20.565Z,51.09
2019-05-02T02:10:50.462Z,50.80
2019-05-02T02:16:07.595Z,50.75
2019-05-02T02:21:46.337Z,68.91
2019-05-02T02:24:21.269Z,53.51
2019-05-02T02:26:49.879Z,52.73
2019-05-02T02:29:18.060Z,51.19
2019-05-02T02:31:48.513Z,51.65
2019-05-02T02:34:21.144Z,52.07
2019-05-02T02:36:46.099Z,60.76
2019-05-02T02:39:17.042Z,56.76
2019-05-02T02:41:45.442Z,69.85
2019-05-02T02:44:21.018Z,61.62
2019-05-02T02:46:49.098Z,73.65
2019-05-02T02:49:21.242Z,63.71
2019-05-02T02:51:47.136Z,74.30
2019-05-02T02:54:15.314Z,76.19
2019-05-02T02:56:43.589Z,77.32
2019-05-02T02:59:11.691Z,73.28
2019-05-02T03:01:39.860Z,55.23
2019-05-02T03:04:11.902Z,75.75
2019-05-02T03:06:38.406Z,76.72
2019-05-02T03:09:08.008Z,71.38
2019-05-02T03:11:56.302Z,66.04
2019-05-02T03:17:20.387Z,74.84
2019-05-02T03:19:46.456Z,75.82
2019-05-02T03:22:14.598Z,75.24
2019-05-02T03:25:03.172Z,72.72
2019-05-02T03:27:37.520Z,73.09
2019-05-02T03:30:01.779Z,72.55
2019-05-02T03:32:35.111Z,75.91
2019-05-02T03:35:00.095Z,73.43
2019-05-02T03:37:30.610Z,72.27
2019-05-02T03:40:00.507Z,72.21
2019-05-02T03:42:27.739Z,74.96
2019-05-02T03:45:03.993Z,73.97
2019-05-02T03:47:26.765Z,73.59
2019-05-02T03:49:54.961Z,70.29
2019-05-02T03:52:23.157Z,60.71
2019-05-02T03:54:52.502Z,66.28
2019-05-02T03:57:32.462Z,64.92
2019-05-02T03:59:51.053Z,74.74
2019-05-02T04:02:20.536Z,74.82
2019-05-02T04:04:54.363Z,71.68
2019-05-02T04:07:21.146Z,72.24
2019-05-02T04:09:49.274Z,73.14
2019-05-02T04:12:19.399Z,64.62
2019-05-02T04:14:47.500Z,69.31
2019-05-02T04:17:15.666Z,74.62
2019-05-02T04:19:44.103Z,73.46
2019-05-02T04:22:12.579Z,75.04
2019-05-02T04:24:40.882Z,75.44
2019-05-02T04:27:09.136Z,75.89
2019-05-02T04:29:37.486Z,74.95
2019-05-02T04:32:11.638Z,75.72
2019-05-02T04:34:35.551Z,63.71
2019-05-02T04:37:04.306Z,73.06
2019-05-02T04:39:32.719Z,73.22
2019-05-02T04:42:05.280Z,74.88
2019-05-02T04:44:43.587Z,75.80
2019-05-02T04:47:13.933Z,74.89
2019-05-02T04:49:35.547Z,72.12
2019-05-02T04:52:06.996Z,60.76
2019-05-02T04:54:32.393Z,60.18
2019-05-02T04:57:02.557Z,62.52
2019-05-02T04:59:32.904Z,72.82
2019-05-02T05:02:01.361Z,70.20
2019-05-02T05:04:33.419Z,69.82
2019-05-02T05:07:01.174Z,68.13
2019-05-02T05:09:29.455Z,67.66
2019-05-02T05:11:59.033Z,70.76
2019-05-02T05:14:31.376Z,71.78
2019-05-02T05:16:58.015Z,57.50
2019-05-02T05:19:31.025Z,69.17
2019-05-02T05:22:04.474Z,68.51
2019-05-02T05:24:54.522Z,59.61
2019-05-02T05:27:23.185Z,66.85
2019-05-02T05:29:53.769Z,70.48
2019-05-02T05:32:21.239Z,70.11
2019-05-02T05:34:49.469Z,71.93
2019-05-02T05:37:17.660Z,73.46
2019-05-02T05:39:48.874Z,69.33
2019-05-02T05:42:17.906Z,58.54
2019-05-02T05:44:48.208Z,63.67
2019-05-02T05:47:19.730Z,69.15
2019-05-02T05:49:47.640Z,58.33
2019-05-02T05:52:15.521Z,71.36
2019-05-02T05:54:43.788Z,68.69
2019-05-02T05:57:16.401Z,66.64
2019-05-02T05:59:41.818Z,71.92
2019-05-02T06:02:14.594Z,65.43
2019-05-02T06:04:41.535Z,70.92
2019-05-02T06:07:09.676Z,64.54
2019-05-02T06:09:37.947Z,60.85
2019-05-02T06:12:06.191Z,71.78
2019-05-02T06:14:34.808Z,71.95
2019-05-02T06:17:03.096Z,60.53
2019-05-02T06:19:31.289Z,64.94
2019-05-02T06:21:59.437Z,66.89
2019-05-02T06:24:27.701Z,66.74
2019-05-02T06:26:55.899Z,71.35
2019-05-02T06:29:24.094Z,60.92
2019-05-02T06:31:52.304Z,67.81
2019-05-02T06:34:20.534Z,73.16
2019-05-02T06:36:48.914Z,70.71
2019-05-02T06:39:17.103Z,70.98
2019-05-02T06:41:45.352Z,71.65
2019-05-02T06:44:13.524Z,71.73
2019-05-02T06:46:41.703Z,64.61
2019-05-02T06:49:09.854Z,72.16
2019-05-02T06:51:38.263Z,66.40
2019-05-02T06:54:06.645Z,71.28
2019-05-02T06:56:34.882Z,71.77
2019-05-02T06:59:04.384Z,69.48
2019-05-02T07:01:32.865Z,69.16
2019-05-02T07:04:04.049Z,67.39
2019-05-02T07:06:42.223Z,71.33
2019-05-02T07:09:00.724Z,71.56
2019-05-02T07:11:33.323Z,72.66
2019-05-02T07:14:12.116Z,69.97
2019-05-02T07:16:41.044Z,73.96
2019-05-02T07:19:29.261Z,67.49
2019-05-02T07:21:58.556Z,70.09
2019-05-02T07:24:30.556Z,64.20
2019-05-02T07:26:58.164Z,71.23
2019-05-02T07:29:26.573Z,71.21
2019-05-02T07:31:54.789Z,66.03
2019-05-02T07:34:22.974Z,72.60
2019-05-02T07:36:51.178Z,69.70
2019-05-02T07:39:19.574Z,69.28
2019-05-02T07:41:47.762Z,71.31
2019-05-02T07:44:15.981Z,68.11
2019-05-02T07:46:51.588Z,64.31
2019-05-02T07:49:14.026Z,69.51
2019-05-02T07:51:42.286Z,70.53
2019-05-02T07:54:10.530Z,67.92
2019-05-02T07:56:38.716Z,69.96
2019-05-02T07:59:06.910Z,65.90
2019-05-02T08:01:35.110Z,67.37
2019-05-02T08:04:04.787Z,68.55
2019-05-02T08:06:35.362Z,71.64
2019-05-02T08:09:07.111Z,67.28
2019-05-02T08:11:37.138Z,68.67
2019-05-02T08:14:03.678Z,68.67
2019-05-02T08:16:31.803Z,70.59
2019-05-02T08:19:01.393Z,70.15
2019-05-02T08:21:32.590Z,71.57
2019-05-02T08:24:02.286Z,66.02
2019-05-02T08:29:34.998Z,70.97
2019-05-02T08:32:03.227Z,70.82
2019-05-02T08:34:34.275Z,71.15
2019-05-02T08:37:04.890Z,70.11
2019-05-02T08:39:34.007Z,71.27
2019-05-02T08:42:03.487Z,70.97
2019-05-02T08:44:32.273Z,69.17
2019-05-02T08:47:00.465Z,71.63
2019-05-02T08:49:28.599Z,67.62
2019-05-02T08:51:56.877Z,69.23
2019-05-02T08:54:27.927Z,71.13
2019-05-02T08:56:59.025Z,69.02
2019-05-02T08:59:26.188Z,68.30
2019-05-02T09:01:54.341Z,67.39
2019-05-02T09:04:24.222Z,69.60
2019-05-02T09:06:53.196Z,69.52
2019-05-02T09:09:22.875Z,69.94
2019-05-02T09:12:03.319Z,64.20
2019-05-02T09:14:22.115Z,67.19
2019-05-02T09:16:52.311Z,61.55
2019-05-02T09:19:21.377Z,67.19
2019-05-02T09:21:52.169Z,63.84
2019-05-02T09:24:23.286Z,60.93
2019-05-02T09:26:51.901Z,65.19
2019-05-02T09:29:22.248Z,62.54
2019-05-02T09:31:50.043Z,62.85
2019-05-02T09:34:22.677Z,67.10
2019-05-02T09:36:48.140Z,67.33
2019-05-02T09:39:16.335Z,66.20
2019-05-02T09:41:44.819Z,62.81
2019-05-02T09:44:17.109Z,65.01
2019-05-02T09:46:47.413Z,64.88
2019-05-02T09:49:16.318Z,64.69
2019-05-02T09:51:45.385Z,63.21
2019-05-02T09:54:12.629Z,57.95
2019-05-02T09:56:42.978Z,62.30
2019-05-02T09:59:26.714Z,63.52
2019-05-02T10:01:42.165Z,65.17
2019-05-02T10:04:12.010Z,63.56
2019-05-02T10:06:42.368Z,62.48
2019-05-02T10:09:12.079Z,61.54
2019-05-02T10:11:41.839Z,61.67
2019-05-02T10:14:32.859Z,62.54
2019-05-02T10:17:05.085Z,62.97
2019-05-02T10:19:29.917Z,64.57
2019-05-02T10:21:58.149Z,60.78
2019-05-02T10:24:27.175Z,65.03
2019-05-02T10:27:04.053Z,65.89
2019-05-02T10:29:28.281Z,62.50
2019-05-02T10:31:55.190Z,64.93
2019-05-02T10:34:23.444Z,61.13
2019-05-02T10:36:58.507Z,60.56
2019-05-02T10:39:23.489Z,60.98
2019-05-02T10:41:52.616Z,58.62
2019-05-02T10:44:22.608Z,59.22
2019-05-02T10:46:58.570Z,55.63
2019-05-02T10:49:49.257Z,57.81
2019-05-02T10:52:21.653Z,59.55
2019-05-02T10:54:47.510Z,61.37
2019-05-02T10:57:15.686Z,61.77
2019-05-02T10:59:43.864Z,59.72
2019-05-02T11:02:32.761Z,58.16
2019-05-02T11:05:04.789Z,56.35
2019-05-02T11:07:32.926Z,58.69
2019-05-02T11:10:03.039Z,58.84
2019-05-02T11:12:56.014Z,59.33
2019-05-02T11:15:44.491Z,56.31
2019-05-02T11:18:12.846Z,57.03
2019-05-02T11:20:42.103Z,57.60
2019-05-02T11:23:12.598Z,56.37
2019-05-02T11:25:42.063Z,58.24
2019-05-02T11:28:12.276Z,55.03
2019-05-02T11:30:41.965Z,54.16
2019-05-02T11:33:13.159Z,58.28
2019-05-02T11:35:41.644Z,52.59
2019-05-02T11:38:11.239Z,53.70
2019-05-02T11:40:40.122Z,52.59
2019-05-02T11:43:08.550Z,52.10
2019-05-02T11:45:36.728Z,50.28
2019-05-02T11:48:09.375Z,54.25
2019-05-02T11:50:35.542Z,52.47
2019-05-02T11:53:09.241Z,52.48
2019-05-02T11:55:33.726Z,52.86
2019-05-02T11:58:07.911Z,52.24
2019-05-02T12:00:32.339Z,56.45
2019-05-02T12:03:16.824Z,54.50
2019-05-02T12:05:44.983Z,52.88
2019-05-02T12:08:13.202Z,55.77
2019-05-02T12:10:42.284Z,48.69
2019-05-02T12:13:15.593Z,57.69
2019-05-02T12:15:43.923Z,52.27
2019-05-02T12:18:12.073Z,47.53
2019-05-02T12:20:42.334Z,51.74
2019-05-02T12:23:10.392Z,49.29
2019-05-02T12:25:38.590Z,45.72
2019-05-02T12:28:07.856Z,50.31
2019-05-02T12:30:37.827Z,51.73
2019-05-02T12:33:06.380Z,48.10
2019-05-02T12:35:34.520Z,53.69
2019-05-02T12:38:02.814Z,48.53
2019-05-02T12:40:32.552Z,49.23
2019-05-02T12:43:02.442Z,50.23
2019-05-02T12:45:30.720Z,41.83
2019-05-02T12:47:58.907Z,46.81
2019-05-02T12:50:27.113Z,45.27
2019-05-02T12:52:55.729Z,44.93
2019-05-02T12:55:24.201Z,46.02
2019-05-02T12:57:52.483Z,46.77
2019-05-02T13:00:22.321Z,47.81
2019-05-02T13:02:56.307Z,48.31
2019-05-02T13:05:24.481Z,41.96
2019-05-02T13:07:55.265Z,42.46
2019-05-02T13:10:39.449Z,46.53
2019-05-02T13:13:09.167Z,49.14
2019-05-02T13:15:38.339Z,39.67
2019-05-02T13:18:07.056Z,46.41
2019-05-02T13:20:38.293Z,51.66
2019-05-02T13:23:27.262Z,41.94
2019-05-02T13:25:53.215Z,47.48
2019-05-02T13:28:25.458Z,45.49
2019-05-02T13:30:58.169Z,43.41
2019-05-02T13:33:35.742Z,50.82
2019-05-02T13:36:03.651Z,46.83
2019-05-02T13:38:32.907Z,44.07
2019-05-02T13:41:02.618Z,39.26
2019-05-02T13:43:41.797Z,44.27
2019-05-02T13:46:22.048Z,50.93
2019-05-02T13:48:50.044Z,45.56
2019-05-02T13:51:18.255Z,47.43
2019-05-02T13:53:54.981Z,45.75
2019-05-02T13:56:45.441Z,47.40
2019-05-02T13:59:13.773Z,50.57
2019-05-02T14:01:42.420Z,47.74
2019-05-02T14:04:14.758Z,44.79
2019-05-02T14:06:42.101Z,44.29
2019-05-02T14:09:22.817Z,44.27
2019-05-02T14:12:01.857Z,45.84
2019-05-02T14:14:29.614Z,46.33
2019-05-02T14:16:57.861Z,48.25
2019-05-02T14:19:26.085Z,48.48
2019-05-02T14:21:54.244Z,47.16
2019-05-02T14:24:23.229Z,45.96
2019-05-02T14:26:52.534Z,43.51
2019-05-02T14:29:21.760Z,49.14
2019-05-02T14:31:51.947Z,46.68
2019-05-02T14:34:38.480Z,49.73
2019-05-02T14:37:07.114Z,48.42
2019-05-02T14:39:35.385Z,49.28
2019-05-02T14:42:03.754Z,52.36
2019-05-02T14:44:58.374Z,49.37
2019-05-02T14:47:02.270Z,51.87
2019-05-02T14:49:32.122Z,47.00
2019-05-02T14:52:02.958Z,48.04
2019-05-02T14:54:32.362Z,47.12
2019-05-02T14:57:17.162Z,48.54
2019-05-02T14:59:44.814Z,47.64
2019-05-02T15:02:32.804Z,48.77
2019-05-02T15:05:02.042Z,46.61
2019-05-02T15:07:31.849Z,46.75
2019-05-02T15:10:02.696Z,48.08
2019-05-02T15:12:30.088Z,48.52
2019-05-02T15:14:58.853Z,49.71
2019-05-02T15:17:27.971Z,49.02
2019-05-02T15:19:56.891Z,47.04
2019-05-02T15:22:27.664Z,46.80
2019-05-02T15:24:56.468Z,49.12
2019-05-02T15:27:24.868Z,48.61
2019-05-02T15:30:00.398Z,51.37
2019-05-02T15:32:45.389Z,54.20
2019-05-02T15:35:22.332Z,53.57
2019-05-02T15:37:47.594Z,53.46
2019-05-02T15:40:43.505Z,65.22
2019-05-02T15:43:09.243Z,63.48
2019-05-02T15:45:36.700Z,59.57
2019-05-02T15:48:04.650Z,59.69
2019-05-02T15:50:32.820Z,63.83
2019-05-02T15:53:12.502Z,61.38
2019-05-02T15:55:43.493Z,64.94
2019-05-02T15:58:22.439Z,51.75
2019-05-02T16:00:52.016Z,50.33
2019-05-02T16:03:22.010Z,66.16
2019-05-02T16:05:52.389Z,55.55
2019-05-02T16:08:21.523Z,61.69
2019-05-02T16:10:49.693Z,57.18
2019-05-02T16:13:17.915Z,55.24
2019-05-02T16:15:46.127Z,63.51
2019-05-02T16:18:14.317Z,63.42
2019-05-02T16:21:07.037Z,66.38
2019-05-02T16:23:35.468Z,67.08
2019-05-02T16:26:05.325Z,65.17
2019-05-02T16:28:32.404Z,63.71
2019-05-02T16:31:02.834Z,65.81
2019-05-02T16:33:31.799Z,66.49
2019-05-02T16:35:59.936Z,61.38
2019-05-02T16:38:32.377Z,65.25
2019-05-02T16:41:03.965Z,67.22
2019-05-02T16:43:29.262Z,72.36
2019-05-02T16:45:57.410Z,66.67
2019-05-02T16:48:25.701Z,74.65
2019-05-02T16:50:55.426Z,75.40
2019-05-02T16:53:26.190Z,70.25
2019-05-02T16:55:53.814Z,73.54
2019-05-02T16:58:22.156Z,76.43
2019-05-02T17:00:50.443Z,71.88
2019-05-02T17:03:24.719Z,75.41
2019-05-02T17:05:49.612Z,70.40
2019-05-02T17:08:41.883Z,68.72
2019-05-02T17:11:15.732Z,70.13
2019-05-02T17:13:43.799Z,69.10
2019-05-02T17:16:16.974Z,69.15
2019-05-02T17:18:43.411Z,70.51
2019-05-02T17:21:12.627Z,71.85
2019-05-02T17:23:42.943Z,75.12
2019-05-02T17:26:12.271Z,66.02
2019-05-02T17:28:43.284Z,70.13
2019-05-02T17:31:18.812Z,70.64
2019-05-02T17:33:41.720Z,65.97
2019-05-02T17:36:11.645Z,71.78
2019-05-02T17:38:41.769Z,73.21
2019-05-02T17:41:11.725Z,73.45
2019-05-02T17:43:42.238Z,66.40
2019-05-02T17:46:12.845Z,73.51
2019-05-02T17:48:39.725Z,72.51
2019-05-02T17:51:17.382Z,75.25
2019-05-02T17:53:49.727Z,72.13
2019-05-02T17:56:20.438Z,72.71
2019-05-02T17:58:53.391Z,76.08
2019-05-02T18:01:21.754Z,76.73
2019-05-02T18:03:51.958Z,75.55
2019-05-02T18:06:30.762Z,71.94
2019-05-02T18:08:53.644Z,72.47
2019-05-02T18:11:19.880Z,76.20
2019-05-02T18:13:48.005Z,73.76
2019-05-02T18:16:16.808Z,68.74
2019-05-02T18:18:46.739Z,73.56
2019-05-02T18:21:17.221Z,73.94
2019-05-02T18:23:45.162Z,73.70
2019-05-02T18:26:13.399Z,75.89
2019-05-02T18:28:49.050Z,74.76
2019-05-02T18:31:12.198Z,76.96
2019-05-02T18:33:41.032Z,72.93
2019-05-02T18:36:10.731Z,73.36
2019-05-02T18:38:38.984Z,74.41
2019-05-02T18:41:07.948Z,76.83
2019-05-02T18:43:43.495Z,75.86
2019-05-02T18:46:07.762Z,76.74
2019-05-02T18:48:36.549Z,66.40
2019-05-02T18:51:06.452Z,68.06
2019-05-02T18:53:34.671Z,68.07
2019-05-02T18:56:03.625Z,70.71
2019-05-02T18:58:36.249Z,70.57
2019-05-02T19:01:03.550Z,76.20
2019-05-02T19:03:33.366Z,73.42
2019-05-02T19:06:02.241Z,70.33
2019-05-02T19:11:38.930Z,77.13
2019-05-02T19:14:07.151Z,75.99
2019-05-02T19:16:35.387Z,78.37
2019-05-02T19:19:03.541Z,65.05
2019-05-02T19:21:36.060Z,65.82
2019-05-02T19:24:02.316Z,71.50
2019-05-02T19:26:32.434Z,75.13
2019-05-02T19:29:34.604Z,75.52
2019-05-02T19:32:04.856Z,76.70
2019-05-02T19:34:33.068Z,77.45
2019-05-02T19:37:03.123Z,75.12
2019-05-02T19:39:33.100Z,77.00
2019-05-02T19:42:01.756Z,75.35
2019-05-02T19:44:32.076Z,73.93
2019-05-02T19:46:59.946Z,75.91
2019-05-02T19:49:28.190Z,74.55
2019-05-02T19:51:58.183Z,77.96
2019-05-02T19:54:26.251Z,77.60
2019-05-02T19:56:54.567Z,78.98
2019-05-02T19:59:26.372Z,79.74
2019-05-02T20:01:56.901Z,76.91
2019-05-02T20:04:22.533Z,78.05
2019-05-02T20:06:50.853Z,77.49
2019-05-02T20:09:19.263Z,78.06
2019-05-02T20:11:47.430Z,78.23
2019-05-02T20:14:15.768Z,77.42
2019-05-02T20:16:49.743Z,76.05
2019-05-02T20:19:23.145Z,72.14
2019-05-02T20:22:07.081Z,78.13
2019-05-02T20:24:55.380Z,73.50
2019-05-02T20:27:19.772Z,73.46
2019-05-02T20:29:47.966Z,77.93
2019-05-02T20:32:16.137Z,78.06
2019-05-02T20:34:44.414Z,72.39
2019-05-02T20:37:12.799Z,77.28
2019-05-02T20:39:41.640Z,77.38
2019-05-02T20:42:11.955Z,76.63
2019-05-02T20:44:41.829Z,75.77
2019-05-02T20:47:12.186Z,77.97
2019-05-02T20:49:42.235Z,77.76
2019-05-02T20:52:11.921Z,74.73
2019-05-02T20:54:40.307Z,75.11
2019-05-02T20:57:08.540Z,76.90
2019-05-02T20:59:36.752Z,76.87
2019-05-02T21:02:05.387Z,76.63
2019-05-02T21:04:33.730Z,75.44
2019-05-02T21:07:22.159Z,74.73
2019-05-02T21:10:09.562Z,79.16
2019-05-02T21:12:37.755Z,73.33
2019-05-02T21:15:07.032Z,77.42
2019-05-02T21:17:35.208Z,78.51
2019-05-02T21:20:03.404Z,72.80
2019-05-02T21:22:32.716Z,78.08
2019-05-02T21:25:12.855Z,75.44
2019-05-02T21:27:41.781Z,76.99
2019-05-02T21:30:12.171Z,75.43
2019-05-02T21:32:40.211Z,77.95
2019-05-02T21:35:08.662Z,67.69
2019-05-02T21:37:36.944Z,76.69
2019-05-02T21:40:05.613Z,77.57
2019-05-02T21:42:33.880Z,77.68
2019-05-02T21:45:02.489Z,73.41
2019-05-02T21:47:31.887Z,69.31
2019-05-02T21:50:19.140Z,68.21
2019-05-02T21:53:19.763Z,70.73
2019-05-02T21:56:07.476Z,71.63
2019-05-02T21:58:35.738Z,71.75
2019-05-02T22:01:12.948Z,71.70
2019-05-02T22:03:42.151Z,73.31
2019-05-02T22:06:12.063Z,73.43
2019-05-02T22:08:41.758Z,75.02
2019-05-02T22:11:11.996Z,68.29
2019-05-02T22:13:42.159Z,67.84
2019-05-02T22:16:10.048Z,71.62
2019-05-02T22:18:38.227Z,71.10
2019-05-02T22:21:06.378Z,67.54
2019-05-02T22:23:34.612Z,72.55
2019-05-02T22:26:02.752Z,65.62
2019-05-02T22:28:32.742Z,68.88
2019-05-02T22:31:03.217Z,70.20
2019-05-02T22:33:32.692Z,66.61
2019-05-02T22:36:01.918Z,69.43
2019-05-02T22:38:37.620Z,66.13
2019-05-02T22:41:05.727Z,73.45
2019-05-02T22:43:33.898Z,69.55
2019-05-02T22:46:05.250Z,73.29
2019-05-02T22:48:33.450Z,71.35
2019-05-02T22:51:01.590Z,68.39
2019-05-02T22:53:29.788Z,66.50
2019-05-02T22:55:57.950Z,66.31
2019-05-02T22:58:26.146Z,70.30
2019-05-02T23:00:54.265Z,68.46
2019-05-02T23:03:24.153Z,68.05
2019-05-02T23:05:52.698Z,66.73
2019-05-02T23:08:22.217Z,70.66
2019-05-02T23:10:51.948Z,71.77
2019-05-02T23:13:22.008Z,65.94
2019-05-02T23:15:52.063Z,65.53
2019-05-02T23:18:20.042Z,68.00
2019-05-02T23:20:48.194Z,70.14
2019-05-02T23:23:16.362Z,70.39
2019-05-02T23:26:02.121Z,68.49
2019-05-02T23:28:31.782Z,68.79
2019-05-02T23:31:02.598Z,64.87
2019-05-02T23:33:51.637Z,70.07
2019-05-02T23:36:20.031Z,70.93
2019-05-02T23:38:48.187Z,71.52
2019-05-02T23:41:16.343Z,66.33
2019-05-02T23:43:44.485Z,68.46
2019-05-02T23:46:12.659Z,65.55
2019-05-02T23:48:41.947Z,70.27
2019-05-02T23:51:12.018Z,72.60
2019-05-02T23:53:42.090Z,64.25
2019-05-02T23:56:10.114Z,68.25
2019-05-02T23:58:38.375Z,70.43
